首页
METAR-TAF:

METAR-TAF

机场 :

Fort Good Hope, 西北特區, 加拿大

纬度: 66-16N, 经度: 128-37W, 海拔: 60米

当前天气观测

该预报发布于12小时和58分钟前的18:00 UTC
风速3节,风向西转西北
温度 24°C
湿度 57%
气压 1020 hPa
能見度: 16.1公里
多云层高于16000英尺

METAR: CYGH 211800Z 29003KT 10SM BKN160 24/15 A3013 RMK AC5 FU LAST STFD OBS/NXT 221300UTC SLP208 DENSITY ALT 1200FT

时间: 00:58 (06:58 UTC)


TAF: 丢失

超过4000个机场的气象观测和天气预报(METAR&TAF报告)。

可查询的气象台以黄色和红色小点在地图上表示。

将鼠标移到小点上方,可查看气象台名称。

然后点击查看天气观测和预报。

如需切换地图:点击带黑十字的绿色按钮放大地图;点击带横线的绿色按钮缩小地图;或者点击绿色箭头查看邻近地区的地图。


METAR-TAF: